CheckWX is a tool to help pilots better visualize weather data.  It is not intended as a substitute for an official pre-flight weather briefing.

19:11:09 UTC

GVAC METAR
Amílcar Cabral International Airport
Espargos, Cape Verde
Current

11 mins ago

GVAC 201900Z 05014KT CAVOK 24/17 Q1015 NOSIG
Observed
Nov-20 @ 19:00 UTC
Wind
  • 050° at 14 KTS
Visibility
10,000+ meters
Flight Rules
VFR
Cloud Levels
  • Clear skies
Temperature
24°C / 75°F
Dewpoint
17°C / 63°F
Humidity
65%
Altimeter
29.97" Hg
Pressure
1014.92 hPa
Previous

1 hour ago

GVAC 201800Z 05015KT CAVOK 25/17 Q1014 NOSIG
Observed
Nov-20 @ 18:00 UTC
Wind
  • 050° at 15 KTS
Visibility
10,000+ meters
Flight Rules
VFR
Cloud Levels
  • Clear skies
Temperature
25°C / 77°F
Dewpoint
17°C / 63°F
Humidity
61%
Altimeter
29.94" Hg
Pressure
1013.92 hPa
Previous

2 hours ago

GVAC 201700Z 07015KT CAVOK 26/17 Q1014 NOSIG
Observed
Nov-20 @ 17:00 UTC
Wind
  • 070° at 15 KTS
Visibility
10,000+ meters
Flight Rules
VFR
Cloud Levels
  • Clear skies
Temperature
26°C / 79°F
Dewpoint
17°C / 63°F
Humidity
58%
Altimeter
29.94" Hg
Pressure
1013.92 hPa